createdAt,value
2017-09-03T00:03:37.960Z,7.37
2017-09-03T00:08:40.627Z,10.80
2017-09-03T00:13:43.475Z,7.93
2017-09-03T00:18:46.425Z,10.83
2017-09-03T00:23:49.111Z,11.00
2017-09-03T00:28:51.197Z,11.20
2017-09-03T00:33:54.592Z,13.70
2017-09-03T00:38:56.614Z,9.83
2017-09-03T00:43:59.242Z,17.70
2017-09-03T00:49:02.239Z,17.13
2017-09-03T00:54:05.355Z,10.00
2017-09-03T00:59:07.364Z,9.13
2017-09-03T01:04:09.544Z,16.63
2017-09-03T01:09:11.615Z,15.07
2017-09-03T01:14:13.565Z,12.27
2017-09-03T01:19:15.729Z,13.60
2017-09-03T01:24:17.675Z,11.40
2017-09-03T01:29:19.628Z,21.87
2017-09-03T01:34:21.669Z,12.27
2017-09-03T01:39:23.652Z,18.30
2017-09-03T01:44:25.628Z,13.80
2017-09-03T01:49:28.506Z,15.97
2017-09-03T01:54:31.391Z,16.00
2017-09-03T01:59:34.020Z,27.93
2017-09-03T02:04:36.766Z,15.53
2017-09-03T02:09:39.238Z,18.30
2017-09-03T02:14:43.652Z,13.87
2017-09-03T02:19:46.616Z,16.20
2017-09-03T02:24:49.524Z,46.97
2017-09-03T02:29:51.476Z,14.17
2017-09-03T02:34:53.545Z,16.60
2017-09-03T02:39:55.495Z,25.93
2017-09-03T02:44:58.364Z,18.40
2017-09-03T02:50:00.455Z,11.90
2017-09-03T02:55:02.505Z,14.67
2017-09-03T03:00:04.446Z,12.00
2017-09-03T03:05:08.488Z,14.07
2017-09-03T03:10:10.521Z,13.53
2017-09-03T03:15:12.496Z,19.30
2017-09-03T03:20:14.514Z,18.77
2017-09-03T03:25:16.958Z,15.23
2017-09-03T03:30:18.921Z,30.93
2017-09-03T03:35:23.078Z,18.50
2017-09-03T03:40:25.360Z,18.73
2017-09-03T03:45:27.355Z,19.57
2017-09-03T03:50:29.340Z,15.90
2017-09-03T03:55:31.364Z,17.70
2017-09-03T04:00:33.792Z,15.40
2017-09-03T04:05:35.885Z,16.30
2017-09-03T04:10:37.882Z,15.47
2017-09-03T04:15:39.875Z,15.47
2017-09-03T04:20:41.815Z,13.73
2017-09-03T04:25:43.841Z,15.43
2017-09-03T04:30:45.798Z,13.13
2017-09-03T04:35:48.632Z,15.20
2017-09-03T04:40:50.571Z,12.97
2017-09-03T04:45:52.538Z,15.83
2017-09-03T04:50:54.749Z,19.10
2017-09-03T04:55:57.257Z,30.23
2017-09-03T05:00:59.286Z,15.40
2017-09-03T05:06:02.719Z,14.13
2017-09-03T05:11:04.712Z,14.70
2017-09-03T05:16:06.829Z,24.83
2017-09-03T05:21:10.918Z,13.23
2017-09-03T05:26:12.944Z,29.03
2017-09-03T05:31:17.044Z,16.30
2017-09-03T05:36:19.509Z,33.93
2017-09-03T05:41:21.592Z,13.43
2017-09-03T05:46:23.603Z,11.57
2017-09-03T05:51:25.658Z,17.57
2017-09-03T05:56:27.935Z,18.70
2017-09-03T06:01:29.924Z,29.23
2017-09-03T06:06:32.706Z,18.13
2017-09-03T06:11:34.752Z,18.77
2017-09-03T06:16:36.738Z,14.40
2017-09-03T06:21:38.829Z,20.13
2017-09-03T06:26:40.882Z,20.53
2017-09-03T06:31:42.885Z,43.17
2017-09-03T06:36:49.984Z,30.43
2017-09-03T06:41:59.109Z,73.37
2017-09-03T06:47:02.027Z,48.50
2017-09-03T06:52:04.124Z,27.50
2017-09-03T06:57:06.126Z,27.63
2017-09-03T07:02:08.208Z,29.70
2017-09-03T07:07:10.255Z,39.23
2017-09-03T07:12:12.413Z,21.83
2017-09-03T07:17:14.661Z,25.40
2017-09-03T07:22:17.009Z,33.03
2017-09-03T07:27:19.307Z,28.10
2017-09-03T07:32:21.321Z,30.70
2017-09-03T07:37:23.523Z,30.50
2017-09-03T07:42:25.865Z,26.50
2017-09-03T07:47:28.107Z,24.63
2017-09-03T07:52:30.023Z,25.83
2017-09-03T07:57:31.961Z,24.97
2017-09-03T08:02:33.918Z,22.37
2017-09-03T08:07:35.866Z,23.83
2017-09-03T08:12:37.807Z,19.97
2017-09-03T08:17:39.899Z,20.83
2017-09-03T08:22:41.837Z,16.00
2017-09-03T08:27:44.515Z,19.60
2017-09-03T08:32:46.670Z,14.23
2017-09-03T08:37:48.601Z,17.63
2017-09-03T08:42:50.614Z,17.27
2017-09-03T08:47:54.799Z,14.00
2017-09-03T08:52:56.958Z,16.20
2017-09-03T08:57:58.882Z,14.60
2017-09-03T09:03:00.831Z,10.30
2017-09-03T09:08:02.829Z,10.87
2017-09-03T09:13:04.791Z,12.50
2017-09-03T09:18:06.765Z,9.60
2017-09-03T09:23:08.793Z,11.67
2017-09-03T09:28:10.787Z,7.90
2017-09-03T09:33:13.203Z,9.77
2017-09-03T09:38:15.703Z,11.33
2017-09-03T09:43:18.003Z,7.33
2017-09-03T09:48:20.034Z,6.60
2017-09-03T09:53:23.335Z,11.87
2017-09-03T09:58:26.276Z,8.63
2017-09-03T10:03:28.620Z,7.40
2017-09-03T10:08:34.147Z,6.67
2017-09-03T10:13:36.420Z,14.10
2017-09-03T10:18:38.689Z,6.67
2017-09-03T10:23:41.010Z,6.70
2017-09-03T10:28:44.149Z,5.53
2017-09-03T10:33:47.815Z,5.40
2017-09-03T10:38:50.215Z,6.50
2017-09-03T10:43:52.747Z,7.03
2017-09-03T10:48:56.625Z,5.60
2017-09-03T10:53:59.554Z,6.57
2017-09-03T10:59:02.093Z,4.87
2017-09-03T11:04:04.165Z,4.87
2017-09-03T11:09:06.128Z,4.10
2017-09-03T11:14:09.820Z,5.17
2017-09-03T11:19:11.830Z,2.70
2017-09-03T11:24:13.948Z,6.10
2017-09-03T11:29:16.026Z,4.60
2017-09-03T11:34:18.362Z,3.37
2017-09-03T11:39:20.318Z,3.70
2017-09-03T11:44:22.561Z,2.60
2017-09-03T11:49:24.886Z,4.60
2017-09-03T11:54:27.182Z,2.47
2017-09-03T11:59:29.127Z,5.97
2017-09-03T12:04:31.261Z,6.57
2017-09-03T12:09:33.219Z,2.20
2017-09-03T12:14:35.162Z,6.73
2017-09-03T12:19:37.105Z,2.77
2017-09-03T12:24:39.051Z,2.87
2017-09-03T12:29:41.074Z,2.30
2017-09-03T12:34:42.990Z,2.17
2017-09-03T12:39:44.928Z,3.57
2017-09-03T12:44:46.859Z,5.50
2017-09-03T12:49:48.826Z,2.80
2017-09-03T12:54:50.762Z,6.00
2017-09-03T12:59:52.692Z,2.33
2017-09-03T13:04:54.642Z,2.80
2017-09-03T13:09:56.576Z,2.83
2017-09-03T13:14:58.510Z,7.23
2017-09-03T13:20:00.487Z,2.83
2017-09-03T13:25:02.522Z,3.77
2017-09-03T13:30:04.558Z,2.50
2017-09-03T13:35:06.487Z,2.50
2017-09-03T13:40:08.469Z,2.37
2017-09-03T13:45:10.391Z,2.70
2017-09-03T13:50:12.347Z,3.50
2017-09-03T13:55:14.306Z,2.50
2017-09-03T14:00:16.400Z,1.83
2017-09-03T14:05:18.408Z,3.03
2017-09-03T14:10:20.377Z,5.03
2017-09-03T14:15:22.343Z,2.33
2017-09-03T14:20:24.278Z,4.87
2017-09-03T14:25:26.298Z,2.63
2017-09-03T14:30:28.343Z,9.03
2017-09-03T14:35:30.300Z,3.23
2017-09-03T14:40:32.239Z,4.10
2017-09-03T14:45:34.167Z,4.60
2017-09-03T14:50:36.116Z,18.20
2017-09-03T14:55:39.037Z,16.40
2017-09-03T15:00:40.975Z,3.63
2017-09-03T15:05:42.886Z,6.97
2017-09-03T15:10:44.823Z,4.67
2017-09-03T15:15:46.811Z,5.00
2017-09-03T15:20:48.765Z,4.97
2017-09-03T15:25:50.861Z,6.00
2017-09-03T15:30:52.839Z,7.00
2017-09-03T15:35:54.783Z,6.83
2017-09-03T15:40:56.715Z,10.70
2017-09-03T15:45:58.678Z,4.37
2017-09-03T15:51:00.637Z,5.60
2017-09-03T15:56:02.657Z,3.87
2017-09-03T16:01:04.607Z,4.00
2017-09-03T16:06:06.573Z,4.73
2017-09-03T16:11:08.886Z,3.90
2017-09-03T16:16:10.837Z,3.53
2017-09-03T16:21:12.822Z,3.20
2017-09-03T16:26:14.818Z,3.33
2017-09-03T16:31:17.288Z,3.67
2017-09-03T16:36:19.487Z,2.90
2017-09-03T16:41:21.663Z,4.63
2017-09-03T16:46:23.706Z,4.93
2017-09-03T16:51:25.829Z,7.37
2017-09-03T16:56:27.983Z,4.30
2017-09-03T17:01:30.025Z,5.27
2017-09-03T17:06:32.359Z,5.40
2017-09-03T17:11:38.254Z,4.83
2017-09-03T17:16:41.114Z,5.03
2017-09-03T17:21:43.179Z,4.07
2017-09-03T17:26:45.566Z,4.40
2017-09-03T17:31:50.443Z,4.30
2017-09-03T17:37:04.203Z,4.20
2017-09-03T17:42:11.243Z,5.77
2017-09-03T17:47:14.524Z,5.87
2017-09-03T17:52:17.647Z,5.73
2017-09-03T17:57:19.686Z,7.27
2017-09-03T18:02:21.762Z,10.50
2017-09-03T18:07:27.369Z,13.47
2017-09-03T18:12:29.654Z,8.67
2017-09-03T18:17:31.780Z,6.00
2017-09-03T18:22:34.380Z,7.87
2017-09-03T18:27:36.734Z,9.57
2017-09-03T18:32:38.787Z,9.40
2017-09-03T18:37:50.868Z,10.07
2017-09-03T18:42:59.904Z,12.40
2017-09-03T18:48:05.988Z,10.33
2017-09-03T18:53:08.045Z,11.10
2017-09-03T18:58:11.548Z,9.23
2017-09-03T19:03:15.199Z,8.60
2017-09-03T19:08:17.197Z,7.50
2017-09-03T19:13:19.250Z,13.03
2017-09-03T19:18:21.297Z,9.10
2017-09-03T19:23:23.392Z,11.40
2017-09-03T19:28:25.406Z,6.40
2017-09-03T19:33:27.556Z,6.40
2017-09-03T19:38:29.632Z,9.10
2017-09-03T19:43:32.448Z,8.53
2017-09-03T19:48:34.452Z,6.10
2017-09-03T19:53:36.517Z,12.90
2017-09-03T19:58:38.727Z,8.63
2017-09-03T20:03:44.436Z,5.97
2017-09-03T20:08:47.008Z,6.77
2017-09-03T20:13:48.979Z,5.87
2017-09-03T20:18:51.022Z,6.80
2017-09-03T20:23:53.082Z,5.80
2017-09-03T20:28:55.077Z,6.10
2017-09-03T20:33:57.094Z,31.83
2017-09-03T20:38:59.048Z,5.23
2017-09-03T20:44:01.030Z,6.23
2017-09-03T20:49:03.123Z,5.73
2017-09-03T20:54:05.275Z,7.30
2017-09-03T20:59:07.283Z,5.80
2017-09-03T21:04:09.331Z,9.40
2017-09-03T21:09:11.344Z,6.33
2017-09-03T21:14:13.351Z,6.70
2017-09-03T21:19:15.403Z,8.00
2017-09-03T21:24:17.434Z,9.30
2017-09-03T21:29:19.492Z,24.80
2017-09-03T21:34:22.017Z,16.93
2017-09-03T21:39:24.866Z,8.07
2017-09-03T21:44:26.886Z,8.30
2017-09-03T21:49:29.043Z,10.60
2017-09-03T21:54:31.104Z,12.97
2017-09-03T21:59:33.220Z,9.33
2017-09-03T22:04:35.983Z,9.07
2017-09-03T22:09:38.149Z,10.53
2017-09-03T22:14:40.289Z,9.03
2017-09-03T22:19:42.326Z,10.37
2017-09-03T22:24:44.391Z,11.07
2017-09-03T22:29:47.282Z,9.30
2017-09-03T22:34:49.294Z,7.70
2017-09-03T22:39:51.310Z,10.37
2017-09-03T22:44:53.305Z,7.93
2017-09-03T22:49:55.633Z,6.77
2017-09-03T22:54:57.629Z,13.43
2017-09-03T22:59:59.608Z,7.60
2017-09-03T23:05:01.639Z,9.07
2017-09-03T23:10:03.707Z,10.77
2017-09-03T23:15:05.806Z,7.73
2017-09-03T23:20:07.791Z,8.53
2017-09-03T23:25:09.829Z,10.70
2017-09-03T23:30:12.190Z,11.70
2017-09-03T23:35:14.222Z,12.27
2017-09-03T23:40:16.265Z,5.97
2017-09-03T23:45:18.283Z,13.30
2017-09-03T23:50:20.312Z,6.80
2017-09-03T23:55:22.312Z,6.77
